Time,TemperatureF,DewpointF,PressureIn,WindDirection,WindDirectionDegrees,WindSpeedMPH,WindSpeedGustMPH,Humidity,HourlyPrecipIn,Conditions,Clouds,dailyrainin,SoftwareType,DateUTC
2013-05-08 00:15:00,53.1,52.5,29.69,NE,45,0.0,-999.0,98,-99.99,,,0.00,Acu-Link.com,2013-05-08 04:15:00,
2013-05-08 00:30:00,53.1,52.5,29.70,North,0,2.7,-999.0,98,-99.99,,,0.00,Acu-Link.com,2013-05-08 04:30:00,
2013-05-08 00:45:00,53.1,52.5,29.69,South,180,0.0,-999.0,98,-99.99,,,0.00,Acu-Link.com,2013-05-08 04:45:00,
2013-05-08 01:00:00,53.2,52.6,29.70,SSW,202,1.1,-999.0,98,-99.99,,,0.00,Acu-Link.com,2013-05-08 05:00:00,
2013-05-08 01:15:00,53.2,52.6,29.69,SSW,202,0.0,-999.0,98,-99.99,,,0.00,Acu-Link.com,2013-05-08 05:15:00,
2013-05-08 01:31:00,53.2,52.6,29.68,SW,225,0.0,-999.0,98,-99.99,,,0.00,Acu-Link.com,2013-05-08 05:31:00,
2013-05-08 01:46:00,53.2,52.6,29.68,SSW,202,0.0,-999.0,98,-99.99,,,0.00,Acu-Link.com,2013-05-08 05:46:00,
2013-05-08 02:01:00,53.2,52.6,29.69,SW,225,0.0,-999.0,98,-99.99,,,0.00,Acu-Link.com,2013-05-08 06:01:00,
2013-05-08 02:16:00,53.2,52.6,29.68,West,270,0.0,-999.0,98,-99.99,,,0.00,Acu-Link.com,2013-05-08 06:16:00,
2013-05-08 02:32:00,53.2,52.6,29.67,NE,45,0.0,-999.0,98,-99.99,,,0.00,Acu-Link.com,2013-05-08 06:32:00,
2013-05-08 02:47:00,53.1,52.5,29.67,SSW,202,0.0,-999.0,98,-99.99,,,0.00,Acu-Link.com,2013-05-08 06:47:00,
2013-05-08 03:02:00,53.1,52.5,29.68,West,270,0.0,-999.0,98,-99.99,,,0.00,Acu-Link.com,2013-05-08 07:02:00,
2013-05-08 03:18:00,52.9,52.4,29.68,NNW,337,0.0,-999.0,98,-99.99,,,0.00,Acu-Link.com,2013-05-08 07:18:00,
2013-05-08 03:33:00,52.9,52.4,29.67,SW,225,0.0,-999.0,98,-99.99,,,0.00,Acu-Link.com,2013-05-08 07:33:00,
2013-05-08 03:48:00,52.9,52.4,29.68,SW,225,0.0,-999.0,98,-99.99,,,0.00,Acu-Link.com,2013-05-08 07:48:00,
2013-05-08 04:04:00,52.9,52.4,29.68,SSW,202,0.0,-999.0,98,-99.99,,,0.00,Acu-Link.com,2013-05-08 08:04:00,
2013-05-08 04:19:00,52.7,52.2,29.69,SW,225,0.0,-999.0,98,-99.99,,,0.00,Acu-Link.com,2013-05-08 08:19:00,
2013-05-08 04:34:00,52.7,52.2,29.68,West,270,0.0,-999.0,98,-99.99,,,0.00,Acu-Link.com,2013-05-08 08:34:00,
2013-05-08 04:49:00,52.7,52.2,29.68,WNW,292,0.0,-999.0,98,-99.99,,,0.00,Acu-Link.com,2013-05-08 08:49:00,
2013-05-08 05:04:00,52.9,52.4,29.68,WNW,292,0.0,-999.0,98,-99.99,,,0.00,Acu-Link.com,2013-05-08 09:04:00,
2013-05-08 05:19:00,52.9,52.4,29.69,West,270,0.0,-999.0,98,-99.99,,,0.00,Acu-Link.com,2013-05-08 09:19:00,
2013-05-08 05:34:00,52.9,52.4,29.68,NNW,337,0.0,-999.0,98,-99.99,,,0.00,Acu-Link.com,2013-05-08 09:34:00,
2013-05-08 05:50:00,52.9,52.4,29.69,South,180,0.0,-999.0,98,-99.99,,,0.00,Acu-Link.com,2013-05-08 09:50:00,
2013-05-08 06:05:00,52.9,52.4,29.70,WSW,247,0.0,-999.0,98,-99.99,,,0.00,Acu-Link.com,2013-05-08 10:05:00,
2013-05-08 06:20:00,52.9,52.4,29.70,NE,45,0.0,-999.0,98,-99.99,,,0.00,Acu-Link.com,2013-05-08 10:20:00,
2013-05-08 06:36:00,52.9,52.4,29.70,SW,225,0.0,-999.0,98,-99.99,,,0.00,Acu-Link.com,2013-05-08 10:36:00,
2013-05-08 06:51:00,52.9,52.4,29.70,North,0,0.0,-999.0,98,-99.99,,,0.00,Acu-Link.com,2013-05-08 10:51:00,
2013-05-08 07:06:00,53.1,52.5,29.71,SSW,202,0.0,-999.0,98,-99.99,,,0.00,Acu-Link.com,2013-05-08 11:06:00,
2013-05-08 07:22:00,53.2,52.6,29.71,WNW,292,0.0,-999.0,98,-99.99,,,0.00,Acu-Link.com,2013-05-08 11:22:00,
2013-05-08 07:37:00,53.6,53.0,29.72,WNW,292,0.0,-999.0,98,-99.99,,,0.00,Acu-Link.com,2013-05-08 11:37:00,
2013-05-08 07:52:00,53.6,53.0,29.71,North,0,1.1,-999.0,98,-99.99,,,0.00,Acu-Link.com,2013-05-08 11:52:00,
2013-05-08 08:07:00,54.1,53.5,29.72,South,180,0.0,-999.0,98,-99.99,,,0.00,Acu-Link.com,2013-05-08 12:07:00,
2013-05-08 08:23:00,55.0,54.4,29.73,NNW,337,0.0,-999.0,98,-99.99,,,0.00,Acu-Link.com,2013-05-08 12:23:00,
2013-05-08 08:38:00,55.2,54.6,29.73,NW,315,0.0,-999.0,98,-99.99,,,0.00,Acu-Link.com,2013-05-08 12:38:00,
2013-05-08 08:53:00,55.2,54.6,29.74,NNE,22,1.7,-999.0,98,-99.99,,,0.00,Acu-Link.com,2013-05-08 12:53:00,
2013-05-08 09:09:00,54.9,54.3,29.73,West,270,1.7,-999.0,98,-99.99,,,0.00,Acu-Link.com,2013-05-08 13:09:00,
2013-05-08 09:24:00,55.0,54.4,29.74,NW,315,1.7,-999.0,98,-99.99,,,0.00,Acu-Link.com,2013-05-08 13:24:00,
2013-05-08 09:39:00,54.9,54.3,29.75,NNE,22,1.1,-999.0,98,-99.99,,,0.00,Acu-Link.com,2013-05-08 13:39:00,
2013-05-08 09:55:00,55.0,54.4,29.75,NE,45,0.0,-999.0,98,-99.99,,,0.00,Acu-Link.com,2013-05-08 13:55:00,
2013-05-08 10:10:00,55.4,54.8,29.75,WSW,247,0.0,-999.0,98,-99.99,,,0.00,Acu-Link.com,2013-05-08 14:10:00,
2013-05-08 10:25:00,55.4,54.8,29.75,East,90,2.7,-999.0,98,-99.99,,,0.00,Acu-Link.com,2013-05-08 14:25:00,
2013-05-08 10:40:00,55.2,54.6,29.75,NNW,337,1.1,-999.0,98,-99.99,,,0.00,Acu-Link.com,2013-05-08 14:40:00,
2013-05-08 10:55:00,55.0,54.4,29.76,WSW,247,1.7,-999.0,98,-99.99,,,0.00,Acu-Link.com,2013-05-08 14:55:00,
2013-05-08 11:11:00,55.2,54.6,29.76,West,270,2.2,-999.0,98,-99.99,,,0.01,Acu-Link.com,2013-05-08 15:11:00,
2013-05-08 11:26:00,55.2,54.6,29.76,ESE,112,2.7,-999.0,98,-99.99,,,0.02,Acu-Link.com,2013-05-08 15:26:00,
2013-05-08 11:41:00,55.0,54.4,29.76,NE,45,1.1,-999.0,98,-99.99,,,0.03,Acu-Link.com,2013-05-08 15:41:00,
2013-05-08 11:57:00,55.6,55.0,29.76,SW,225,0.0,-999.0,98,-99.99,,,0.04,Acu-Link.com,2013-05-08 15:57:00,
2013-05-08 12:12:00,56.3,55.7,29.75,West,270,3.2,-999.0,98,-99.99,,,0.04,Acu-Link.com,2013-05-08 16:12:00,
2013-05-08 12:27:00,55.8,55.2,29.75,WSW,247,0.0,-999.0,98,-99.99,,,0.04,Acu-Link.com,2013-05-08 16:27:00,
2013-05-08 12:43:00,55.6,55.0,29.74,NE,45,0.0,-999.0,98,-99.99,,,0.05,Acu-Link.com,2013-05-08 16:43:00,
2013-05-08 12:58:00,56.1,55.5,29.74,NNE,22,1.7,-999.0,98,-99.99,,,0.06,Acu-Link.com,2013-05-08 16:58:00,
2013-05-08 13:13:00,56.5,55.9,29.73,NNE,22,0.0,-999.0,98,-99.99,,,0.06,Acu-Link.com,2013-05-08 17:13:00,
2013-05-08 13:28:00,56.5,55.9,29.73,SSE,157,0.0,-999.0,98,-99.99,,,0.06,Acu-Link.com,2013-05-08 17:28:00,
2013-05-08 13:43:00,56.8,56.2,29.73,West,270,0.0,-999.0,98,-99.99,,,0.06,Acu-Link.com,2013-05-08 17:43:00,
2013-05-08 13:59:00,57.4,56.8,29.73,SSW,202,0.0,-999.0,98,-99.99,,,0.07,Acu-Link.com,2013-05-08 17:59:00,
2013-05-08 14:14:00,57.6,57.0,29.73,NNE,22,1.1,-999.0,98,-99.99,,,0.08,Acu-Link.com,2013-05-08 18:14:00,
2013-05-08 14:29:00,58.6,58.0,29.73,NNE,22,3.2,-999.0,98,-99.99,,,0.08,Acu-Link.com,2013-05-08 18:29:00,
2013-05-08 14:45:00,59.0,58.4,29.73,NNE,22,3.2,-999.0,98,-99.99,,,0.09,Acu-Link.com,2013-05-08 18:45:00,
2013-05-08 15:00:00,59.0,58.4,29.72,SSE,157,1.1,-999.0,98,-99.99,,,0.10,Acu-Link.com,2013-05-08 19:00:00,
2013-05-08 15:15:00,59.0,58.4,29.72,ESE,112,0.0,-999.0,98,-99.99,,,0.10,Acu-Link.com,2013-05-08 19:15:00,
2013-05-08 15:30:00,59.9,59.3,29.71,NNW,337,0.0,-999.0,98,-99.99,,,0.10,Acu-Link.com,2013-05-08 19:30:00,
2013-05-08 15:46:00,59.9,59.3,29.71,SSW,202,0.0,-999.0,98,-99.99,,,0.10,Acu-Link.com,2013-05-08 19:46:00,
2013-05-08 16:01:00,61.2,60.6,29.71,NNW,337,0.0,-999.0,98,-99.99,,,0.11,Acu-Link.com,2013-05-08 20:01:00,
2013-05-08 16:16:00,59.9,59.3,29.70,West,270,0.0,-999.0,98,-99.99,,,0.12,Acu-Link.com,2013-05-08 20:16:00,
2013-05-08 16:31:00,61.7,61.1,29.70,West,270,0.0,-999.0,98,-99.99,,,0.12,Acu-Link.com,2013-05-08 20:31:00,
2013-05-08 16:47:00,61.5,60.9,29.71,WNW,292,0.0,-999.0,98,-99.99,,,0.14,Acu-Link.com,2013-05-08 20:47:00,
2013-05-08 17:02:00,60.1,59.5,29.71,SE,135,1.7,-999.0,98,-99.99,,,0.24,Acu-Link.com,2013-05-08 21:02:00,
2013-05-08 17:17:00,59.9,59.3,29.72,South,180,0.0,-999.0,98,-99.99,,,0.28,Acu-Link.com,2013-05-08 21:17:00,
2013-05-08 17:33:00,59.4,58.8,29.71,South,180,2.2,-999.0,98,-99.99,,,0.32,Acu-Link.com,2013-05-08 21:33:00,
2013-05-08 17:48:00,59.9,59.3,29.72,NNW,337,0.0,-999.0,98,-99.99,,,0.35,Acu-Link.com,2013-05-08 21:48:00,
2013-05-08 18:03:00,60.8,60.2,29.72,NE,45,0.0,-999.0,98,-99.99,,,0.36,Acu-Link.com,2013-05-08 22:03:00,
2013-05-08 18:19:00,61.3,60.7,29.72,WNW,292,0.0,-999.0,98,-99.99,,,0.36,Acu-Link.com,2013-05-08 22:19:00,
2013-05-08 18:34:00,62.1,61.5,29.72,WNW,292,0.0,-999.0,98,-99.99,,,0.36,Acu-Link.com,2013-05-08 22:34:00,
2013-05-08 18:49:00,61.7,61.1,29.72,West,270,0.0,-999.0,98,-99.99,,,0.36,Acu-Link.com,2013-05-08 22:49:00,
2013-05-08 19:04:00,61.2,60.6,29.72,NNW,337,0.0,-999.0,98,-99.99,,,0.36,Acu-Link.com,2013-05-08 23:04:00,
2013-05-08 19:20:00,60.4,59.8,29.73,SE,135,0.0,-999.0,98,-99.99,,,0.36,Acu-Link.com,2013-05-08 23:20:00,
2013-05-08 19:35:00,59.7,59.1,29.73,ESE,112,0.0,-999.0,98,-99.99,,,0.36,Acu-Link.com,2013-05-08 23:35:00,
2013-05-08 19:50:00,59.2,58.6,29.73,SE,135,0.0,-999.0,98,-99.99,,,0.36,Acu-Link.com,2013-05-08 23:50:00,
2013-05-08 20:06:00,58.8,58.2,29.74,SE,135,0.0,-999.0,98,-99.99,,,0.36,Acu-Link.com,2013-05-09 00:06:00,
2013-05-08 20:21:00,58.5,57.9,29.74,ESE,112,0.0,-999.0,98,-99.99,,,0.36,Acu-Link.com,2013-05-09 00:21:00,
2013-05-08 20:36:00,57.9,57.3,29.75,East,90,0.0,-999.0,98,-99.99,,,0.36,Acu-Link.com,2013-05-09 00:36:00,
2013-05-08 20:51:00,57.7,57.1,29.75,South,180,0.0,-999.0,98,-99.99,,,0.36,Acu-Link.com,2013-05-09 00:51:00,
2013-05-08 21:07:00,57.6,57.0,29.76,SSE,157,0.0,-999.0,98,-99.99,,,0.36,Acu-Link.com,2013-05-09 01:07:00,
2013-05-08 21:22:00,57.4,56.8,29.76,SE,135,0.0,-999.0,98,-99.99,,,0.36,Acu-Link.com,2013-05-09 01:22:00,
2013-05-08 21:37:00,57.2,56.6,29.77,South,180,0.0,-999.0,98,-99.99,,,0.36,Acu-Link.com,2013-05-09 01:37:00,
2013-05-08 21:52:00,56.7,56.1,29.76,SSE,157,0.0,-999.0,98,-99.99,,,0.36,Acu-Link.com,2013-05-09 01:52:00,
2013-05-08 22:07:00,56.3,55.7,29.77,South,180,0.0,-999.0,98,-99.99,,,0.36,Acu-Link.com,2013-05-09 02:07:00,
2013-05-08 22:23:00,55.8,55.2,29.77,SSW,202,0.0,-999.0,98,-99.99,,,0.36,Acu-Link.com,2013-05-09 02:23:00,
2013-05-08 22:38:00,55.6,55.0,29.79,SSW,202,0.0,-999.0,98,-99.99,,,0.36,Acu-Link.com,2013-05-09 02:38:00,
2013-05-08 22:53:00,55.4,54.8,29.79,South,180,0.0,-999.0,98,-99.99,,,0.36,Acu-Link.com,2013-05-09 02:53:00,
2013-05-08 23:08:00,54.9,54.3,29.78,SSW,202,0.0,-999.0,98,-99.99,,,0.36,Acu-Link.com,2013-05-09 03:08:00,
2013-05-08 23:24:00,54.5,53.9,29.77,SSW,202,0.0,-999.0,98,-99.99,,,0.36,Acu-Link.com,2013-05-09 03:24:00,
2013-05-08 23:39:00,54.1,53.5,29.76,South,180,0.0,-999.0,98,-99.99,,,0.36,Acu-Link.com,2013-05-09 03:39:00,
2013-05-08 23:54:00,54.1,53.5,29.77,SSW,202,0.0,-999.0,98,-99.99,,,0.36,Acu-Link.com,2013-05-09 03:54:00,